createdAt,value
2018-08-10T00:00:31.035Z,13.77
2018-08-10T00:02:59.952Z,21.67
2018-08-10T00:05:28.505Z,12.27
2018-08-10T00:07:57.066Z,12.80
2018-08-10T00:10:25.609Z,19.20
2018-08-10T00:12:54.260Z,18.53
2018-08-10T00:15:22.840Z,20.70
2018-08-10T00:17:51.366Z,15.63
2018-08-10T00:20:19.915Z,20.47
2018-08-10T00:22:48.430Z,17.03
2018-08-10T00:25:18.121Z,14.80
2018-08-10T00:27:46.707Z,23.57
2018-08-10T00:30:18.782Z,20.87
2018-08-10T00:32:49.379Z,23.20
2018-08-10T00:35:18.037Z,21.00
2018-08-10T00:37:47.916Z,25.07
2018-08-10T00:40:22.925Z,21.03
2018-08-10T00:42:51.634Z,23.57
2018-08-10T00:45:20.698Z,31.63
2018-08-10T00:47:49.793Z,17.75
2018-08-10T00:50:18.820Z,20.30
2018-08-10T00:52:48.302Z,18.67
2018-08-10T00:55:17.915Z,17.30
2018-08-10T00:57:47.165Z,16.17
2018-08-10T01:00:21.055Z,17.33
2018-08-10T01:02:49.817Z,23.13
2018-08-10T01:05:18.416Z,19.77
2018-08-10T01:07:47.018Z,14.90
2018-08-10T01:10:17.430Z,13.25
2018-08-10T01:12:46.084Z,15.60
2018-08-10T01:15:15.899Z,13.25
2018-08-10T01:17:45.409Z,14.23
2018-08-10T01:20:19.429Z,15.80
2018-08-10T01:22:53.470Z,17.73
2018-08-10T01:25:23.582Z,17.20
2018-08-10T01:28:00.561Z,15.75
2018-08-10T01:30:30.248Z,18.12
2018-08-10T01:32:59.446Z,18.40
2018-08-10T01:35:28.566Z,18.33
2018-08-10T01:37:58.372Z,22.17
2018-08-10T01:40:27.146Z,19.25
2018-08-10T01:42:55.748Z,16.60
2018-08-10T01:45:24.249Z,33.67
2018-08-10T01:47:53.040Z,26.90
2018-08-10T01:50:21.628Z,30.00
2018-08-10T01:52:50.154Z,30.27
2018-08-10T01:55:18.737Z,22.60
2018-08-10T01:57:47.340Z,29.40
2018-08-10T02:00:15.897Z,26.68
2018-08-10T02:02:44.430Z,32.33
2018-08-10T02:05:14.144Z,33.23
2018-08-10T02:07:43.269Z,27.00
2018-08-10T02:10:13.861Z,35.80
2018-08-10T02:12:43.399Z,35.30
2018-08-10T02:15:15.109Z,33.25
2018-08-10T02:17:43.720Z,34.73
2018-08-10T02:20:13.829Z,43.80
2018-08-10T02:22:42.500Z,38.70
2018-08-10T02:25:12.557Z,41.85
2018-08-10T02:27:42.250Z,36.15
2018-08-10T02:30:12.369Z,34.43
2018-08-10T02:32:41.868Z,36.28
2018-08-10T02:35:10.459Z,45.50
2018-08-10T02:37:39.608Z,34.60
2018-08-10T02:40:15.719Z,41.58
2018-08-10T02:42:45.513Z,35.40
2018-08-10T02:45:14.500Z,43.80
2018-08-10T02:47:43.092Z,34.90
2018-08-10T02:50:11.670Z,44.10
2018-08-10T02:52:40.253Z,35.95
2018-08-10T02:55:10.057Z,33.50
2018-08-10T02:57:39.062Z,31.97
2018-08-10T03:00:09.682Z,40.15
2018-08-10T03:02:38.218Z,45.10
2018-08-10T03:05:07.813Z,44.50
2018-08-10T03:07:36.669Z,40.73
2018-08-10T03:10:06.587Z,33.58
2018-08-10T03:12:35.137Z,53.10
2018-08-10T03:15:03.754Z,39.13
2018-08-10T03:17:32.358Z,39.27
2018-08-10T03:20:00.925Z,35.00
2018-08-10T03:22:29.442Z,31.90
2018-08-10T03:24:57.974Z,32.77
2018-08-10T03:27:26.550Z,39.55
2018-08-10T03:29:55.086Z,41.35
2018-08-10T03:32:23.755Z,36.63
2018-08-10T03:34:52.336Z,35.43
2018-08-10T03:37:20.852Z,37.80
2018-08-10T03:39:49.364Z,27.75
2018-08-10T03:42:17.862Z,35.43
2018-08-10T03:44:46.376Z,43.63
2018-08-10T03:47:14.944Z,43.85
2018-08-10T03:49:43.537Z,42.83
2018-08-10T03:52:12.121Z,45.20
2018-08-10T03:54:40.683Z,40.75
2018-08-10T03:57:09.194Z,50.15
2018-08-10T03:59:37.787Z,39.78
2018-08-10T04:02:06.460Z,36.17
2018-08-10T04:04:35.146Z,40.28
2018-08-10T04:07:03.675Z,43.40
2018-08-10T04:09:32.223Z,32.10
2018-08-10T04:12:00.748Z,31.02
2018-08-10T04:14:29.273Z,26.42
2018-08-10T04:16:57.818Z,31.50
2018-08-10T04:19:26.350Z,36.28
2018-08-10T04:21:54.889Z,32.88
2018-08-10T04:24:23.454Z,35.98
2018-08-10T04:26:52.001Z,26.12
2018-08-10T04:29:20.545Z,39.50
2018-08-10T04:31:49.094Z,33.58
2018-08-10T04:34:18.232Z,25.43
2018-08-10T04:36:46.773Z,22.15
2018-08-10T04:39:15.346Z,22.00
2018-08-10T04:41:43.921Z,42.13
2018-08-10T04:44:13.297Z,12.90
2018-08-10T04:46:41.849Z,20.17
2018-08-10T04:49:10.389Z,16.32
2018-08-10T04:51:39.027Z,16.07
2018-08-10T04:54:08.069Z,23.05
2018-08-10T04:56:36.601Z,12.63
2018-08-10T04:59:05.297Z,16.82
2018-08-10T05:01:33.840Z,16.73
2018-08-10T05:04:02.407Z,16.97
2018-08-10T05:06:30.918Z,16.45
2018-08-10T05:08:59.463Z,14.87
2018-08-10T05:11:27.997Z,17.55
2018-08-10T05:13:56.525Z,19.33
2018-08-10T05:16:25.098Z,9.63
2018-08-10T05:18:54.111Z,8.33
2018-08-10T05:21:22.628Z,13.62
2018-08-10T05:23:51.200Z,11.93
2018-08-10T05:26:19.724Z,10.60
2018-08-10T05:28:48.223Z,8.30
2018-08-10T05:31:16.768Z,12.30
2018-08-10T05:33:45.520Z,13.90
2018-08-10T05:36:14.307Z,10.27
2018-08-10T05:38:42.842Z,9.00
2018-08-10T05:41:11.776Z,5.80
2018-08-10T05:43:40.794Z,6.00
2018-08-10T05:46:09.582Z,3.87
2018-08-10T05:48:41.239Z,3.30
2018-08-10T05:51:12.586Z,2.20
2018-08-10T05:53:41.604Z,2.63
2018-08-10T05:56:10.554Z,6.93
2018-08-10T05:58:39.391Z,5.90
2018-08-10T06:01:08.143Z,4.97
2018-08-10T06:03:36.687Z,7.67
2018-08-10T06:06:05.245Z,6.53
2018-08-10T06:08:33.742Z,5.17
2018-08-10T06:11:02.264Z,3.10
2018-08-10T06:13:30.785Z,6.40
2018-08-10T06:15:59.323Z,2.50
2018-08-10T06:18:27.830Z,5.33
2018-08-10T06:20:56.369Z,7.83
2018-08-10T06:23:24.864Z,11.33
2018-08-10T06:25:53.387Z,9.27
2018-08-10T06:28:22.006Z,5.30
2018-08-10T06:30:50.652Z,5.57
2018-08-10T06:33:19.173Z,12.53
2018-08-10T06:35:47.745Z,13.70
2018-08-10T06:38:16.244Z,5.23
2018-08-10T06:40:44.743Z,9.40
2018-08-10T06:43:13.285Z,5.77
2018-08-10T06:45:41.867Z,8.53
2018-08-10T06:48:10.532Z,6.90
2018-08-10T06:50:39.061Z,7.33
2018-08-10T06:53:07.631Z,6.23
2018-08-10T06:55:36.213Z,13.57
2018-08-10T06:58:05.198Z,10.20
2018-08-10T07:00:33.819Z,12.50
2018-08-10T07:03:02.240Z,8.60
2018-08-10T07:05:30.884Z,10.20
2018-08-10T07:07:59.416Z,5.87
2018-08-10T07:10:27.941Z,4.80
2018-08-10T07:12:56.454Z,8.53
2018-08-10T07:15:25.050Z,8.07
2018-08-10T07:17:53.594Z,4.80
2018-08-10T07:20:22.225Z,1.77
2018-08-10T07:22:50.785Z,6.73
2018-08-10T07:25:19.369Z,4.17
2018-08-10T07:27:47.981Z,3.20
2018-08-10T07:30:16.497Z,3.20
2018-08-10T07:32:45.049Z,6.80
2018-08-10T07:35:13.582Z,16.13
2018-08-10T07:37:42.094Z,5.17
2018-08-10T07:40:10.614Z,3.63
2018-08-10T07:42:39.118Z,4.50
2018-08-10T07:45:07.655Z,8.90
2018-08-10T07:47:36.190Z,6.70
2018-08-10T07:50:05.220Z,2.90
2018-08-10T07:52:33.732Z,7.10
2018-08-10T07:55:02.259Z,15.37
2018-08-10T07:57:30.863Z,11.70
2018-08-10T07:59:59.426Z,1.47
2018-08-10T08:02:28.059Z,2.73
2018-08-10T08:04:56.667Z,5.93
2018-08-10T08:07:25.169Z,3.60
2018-08-10T08:09:53.695Z,6.73
2018-08-10T08:12:57.318Z,5.20
2018-08-10T08:15:25.876Z,7.70
2018-08-10T08:17:54.472Z,1.90
2018-08-10T08:20:23.042Z,3.40
2018-08-10T08:22:59.553Z,3.80
2018-08-10T08:25:28.429Z,3.50
2018-08-10T08:27:57.017Z,7.50
2018-08-10T08:30:25.538Z,6.20
2018-08-10T08:32:54.079Z,2.00
2018-08-10T08:35:22.633Z,8.03
2018-08-10T08:37:51.154Z,3.67
2018-08-10T08:40:22.742Z,8.07
2018-08-10T08:42:51.815Z,2.50
2018-08-10T08:46:00.291Z,5.00
2018-08-10T08:48:30.236Z,2.67
2018-08-10T08:51:02.432Z,6.80
2018-08-10T08:53:31.009Z,3.40
2018-08-10T08:56:16.531Z,5.00
2018-08-10T08:58:46.274Z,8.57
2018-08-10T09:01:15.186Z,2.43
2018-08-10T09:05:02.009Z,2.33
2018-08-10T09:07:31.311Z,3.47
2018-08-10T09:15:46.211Z,4.90
2018-08-10T09:18:14.765Z,2.27
2018-08-10T09:20:43.310Z,1.53
2018-08-10T09:23:11.956Z,1.90
2018-08-10T09:25:40.501Z,2.00
2018-08-10T09:28:09.210Z,7.77
2018-08-10T09:30:37.857Z,7.10
2018-08-10T09:33:07.318Z,3.27
2018-08-10T09:35:35.866Z,5.20
2018-08-10T09:38:07.591Z,3.40
2018-08-10T09:40:36.123Z,2.50
2018-08-10T09:43:04.675Z,0.47
2018-08-10T09:45:33.217Z,1.43
2018-08-10T09:48:01.823Z,6.53
2018-08-10T09:50:30.356Z,2.90
2018-08-10T09:53:04.222Z,5.63
2018-08-10T09:55:37.992Z,1.67
2018-08-10T09:58:10.136Z,2.70
2018-08-10T10:00:44.055Z,1.70
2018-08-10T10:03:22.912Z,3.37
2018-08-10T10:05:52.402Z,5.10
2018-08-10T10:08:21.485Z,3.30
2018-08-10T10:10:50.080Z,7.30
2018-08-10T10:13:18.648Z,2.30
2018-08-10T10:15:47.203Z,1.43
2018-08-10T10:18:16.898Z,1.10
2018-08-10T10:20:46.360Z,3.17
2018-08-10T10:23:14.889Z,5.07
2018-08-10T10:25:43.483Z,3.37
2018-08-10T10:28:12.089Z,2.40
2018-08-10T10:30:40.685Z,4.00
2018-08-10T10:33:09.288Z,3.10
2018-08-10T10:35:37.805Z,1.90
2018-08-10T10:38:06.686Z,5.13
2018-08-10T10:40:35.234Z,1.43
2018-08-10T10:43:03.770Z,7.37
2018-08-10T10:45:32.303Z,4.30
2018-08-10T10:48:00.880Z,2.70
2018-08-10T10:50:29.422Z,2.67
2018-08-10T10:52:58.036Z,1.50
2018-08-10T10:55:26.688Z,2.30
2018-08-10T10:57:55.252Z,3.53
2018-08-10T11:00:23.812Z,4.10
2018-08-10T11:02:52.426Z,1.30
2018-08-10T11:05:21.004Z,3.13
2018-08-10T11:07:49.519Z,3.43
2018-08-10T11:10:19.204Z,3.97
2018-08-10T11:12:47.759Z,6.87
2018-08-10T11:15:16.283Z,1.20
2018-08-10T11:17:44.886Z,3.33
2018-08-10T11:20:13.932Z,3.47
2018-08-10T11:22:42.915Z,5.97
2018-08-10T11:25:12.986Z,6.70
2018-08-10T11:27:42.337Z,8.43
2018-08-10T11:30:11.233Z,1.53
2018-08-10T11:32:40.134Z,1.37
2018-08-10T11:35:09.300Z,2.30
2018-08-10T11:37:37.887Z,2.80
2018-08-10T11:40:09.696Z,0.67
2018-08-10T11:42:39.468Z,0.70
2018-08-10T11:45:11.348Z,4.63
2018-08-10T11:47:40.225Z,0.53
2018-08-10T11:50:08.824Z,6.53
2018-08-10T11:52:37.466Z,3.03
2018-08-10T11:55:07.058Z,1.67
2018-08-10T11:57:35.691Z,0.50
2018-08-10T12:00:05.204Z,2.47
2018-08-10T12:02:33.894Z,1.10
2018-08-10T12:05:02.416Z,5.70
2018-08-10T12:07:30.953Z,1.80
2018-08-10T12:10:00.416Z,0.77
2018-08-10T12:12:28.964Z,7.27
2018-08-10T12:14:57.466Z,0.93
2018-08-10T12:17:25.982Z,1.10
2018-08-10T12:19:54.490Z,1.47
2018-08-10T12:22:23.070Z,2.00
2018-08-10T12:24:51.674Z,1.63
2018-08-10T12:27:20.237Z,2.63
2018-08-10T12:29:48.778Z,0.80
2018-08-10T12:32:17.303Z,1.00
2018-08-10T12:34:45.994Z,2.87
2018-08-10T12:37:14.583Z,1.73
2018-08-10T12:39:43.176Z,0.67
2018-08-10T12:42:11.951Z,1.67
2018-08-10T12:44:40.479Z,1.47
2018-08-10T12:47:09.019Z,0.73
2018-08-10T12:49:37.603Z,4.73
2018-08-10T12:52:06.191Z,3.17
2018-08-10T12:54:34.726Z,5.57
2018-08-10T12:57:03.419Z,0.70
2018-08-10T12:59:31.999Z,2.03
2018-08-10T13:02:00.504Z,3.73
2018-08-10T13:04:29.035Z,2.77
2018-08-10T13:06:57.552Z,3.57
2018-08-10T13:09:26.112Z,5.40
2018-08-10T13:11:54.633Z,6.97
2018-08-10T13:14:23.202Z,4.13
2018-08-10T13:16:51.764Z,1.03
2018-08-10T13:19:20.309Z,2.43
2018-08-10T13:21:48.893Z,2.97
2018-08-10T13:24:17.406Z,5.23
2018-08-10T13:26:45.962Z,2.00
2018-08-10T13:29:14.479Z,6.33
2018-08-10T13:31:43.016Z,0.90
2018-08-10T13:34:11.554Z,1.57
2018-08-10T13:36:40.209Z,0.70
2018-08-10T13:39:10.826Z,1.03
2018-08-10T13:41:40.213Z,2.83
2018-08-10T13:44:08.840Z,4.70
2018-08-10T13:46:37.408Z,0.70
2018-08-10T13:49:06.006Z,1.63
2018-08-10T13:51:34.644Z,3.60
2018-08-10T13:54:03.264Z,4.67
2018-08-10T13:56:31.940Z,1.17
2018-08-10T13:59:00.525Z,5.30
2018-08-10T14:01:29.063Z,4.73
2018-08-10T14:03:57.607Z,2.33
2018-08-10T14:06:26.397Z,1.13
2018-08-10T14:08:54.928Z,2.43
2018-08-10T14:11:23.505Z,1.80
2018-08-10T14:13:52.065Z,1.00
2018-08-10T14:16:20.585Z,4.40
2018-08-10T14:18:49.200Z,0.90
2018-08-10T14:21:17.704Z,1.90
2018-08-10T14:23:46.352Z,4.40
2018-08-10T14:26:14.916Z,0.70
2018-08-10T14:28:43.443Z,0.90
2018-08-10T14:31:11.969Z,2.90
2018-08-10T14:33:40.533Z,2.23
2018-08-10T14:36:09.063Z,1.53
2018-08-10T14:38:37.691Z,1.03
2018-08-10T14:41:06.465Z,5.70
2018-08-10T14:43:35.029Z,0.70
2018-08-10T14:46:03.586Z,2.53
2018-08-10T14:48:32.159Z,4.23
2018-08-10T14:51:00.701Z,2.40
2018-08-10T14:53:29.318Z,3.40
2018-08-10T14:55:57.895Z,3.20
2018-08-10T14:58:26.480Z,1.93
2018-08-10T15:00:55.134Z,5.40
2018-08-10T15:03:23.673Z,0.93
2018-08-10T15:05:52.237Z,3.47
2018-08-10T15:08:20.784Z,2.60
2018-08-10T15:10:49.344Z,0.40
2018-08-10T15:13:18.057Z,2.83
2018-08-10T15:15:46.560Z,3.70
2018-08-10T15:18:15.157Z,5.13
2018-08-10T15:20:43.705Z,1.10
2018-08-10T15:23:12.290Z,1.87
2018-08-10T15:25:40.832Z,2.20
2018-08-10T15:28:09.463Z,6.17
2018-08-10T15:30:38.047Z,6.83
2018-08-10T15:33:06.958Z,4.90
2018-08-10T15:35:35.521Z,5.33
2018-08-10T15:38:04.116Z,1.73
2018-08-10T15:40:32.741Z,8.60
2018-08-10T15:43:01.401Z,5.57
2018-08-10T15:45:30.001Z,7.13
2018-08-10T15:47:58.542Z,2.03
2018-08-10T15:50:27.234Z,6.67
2018-08-10T15:52:55.814Z,1.13
2018-08-10T15:55:24.326Z,2.50
2018-08-10T15:57:52.939Z,8.03
2018-08-10T16:00:22.920Z,1.13
2018-08-10T16:02:51.508Z,2.97
2018-08-10T16:05:20.131Z,1.20
2018-08-10T16:07:48.674Z,4.13
2018-08-10T16:10:17.245Z,3.63
2018-08-10T16:12:45.999Z,1.53
2018-08-10T16:15:18.652Z,7.83
2018-08-10T16:17:47.498Z,2.30
2018-08-10T16:20:17.617Z,3.23
2018-08-10T16:22:46.310Z,4.03
2018-08-10T16:25:15.685Z,1.17
2018-08-10T16:27:44.907Z,2.47
2018-08-10T16:30:14.826Z,3.23
2018-08-10T16:32:44.539Z,2.57
2018-08-10T16:35:14.258Z,2.20
2018-08-10T16:37:43.993Z,5.50
2018-08-10T16:40:14.093Z,1.20
2018-08-10T16:42:43.071Z,1.77
2018-08-10T16:45:12.595Z,2.87
2018-08-10T16:47:41.778Z,2.07
2018-08-10T16:50:14.561Z,3.40
2018-08-10T16:52:43.796Z,3.60
2018-08-10T16:55:15.242Z,5.90
2018-08-10T16:57:44.734Z,9.83
2018-08-10T17:00:18.742Z,0.87
2018-08-10T17:02:47.942Z,1.17
2018-08-10T17:05:16.584Z,4.20
2018-08-10T17:07:46.008Z,4.80
2018-08-10T17:10:14.624Z,0.83
2018-08-10T17:12:44.412Z,5.10
2018-08-10T17:15:14.537Z,5.60
2018-08-10T17:17:44.187Z,3.13
2018-08-10T17:20:13.266Z,1.30
2018-08-10T17:22:42.637Z,0.57
2018-08-10T17:25:12.810Z,4.53
2018-08-10T17:27:41.353Z,1.53
2018-08-10T17:30:12.382Z,4.83
2018-08-10T17:32:40.934Z,5.60
2018-08-10T17:35:11.032Z,3.33
2018-08-10T17:37:39.880Z,2.10
2018-08-10T17:40:09.316Z,2.27
2018-08-10T17:42:38.370Z,4.10
2018-08-10T17:45:13.026Z,3.07
2018-08-10T17:47:41.596Z,1.23
2018-08-10T17:50:13.562Z,1.97
2018-08-10T17:52:45.533Z,1.57
2018-08-10T17:55:15.245Z,0.80
2018-08-10T17:57:44.122Z,3.20
2018-08-10T18:00:15.702Z,6.10
2018-08-10T18:02:44.724Z,4.33
2018-08-10T18:05:14.375Z,2.17
2018-08-10T18:07:43.032Z,2.77
2018-08-10T18:10:12.498Z,4.47
2018-08-10T18:12:41.678Z,0.73
2018-08-10T18:15:12.367Z,2.40
2018-08-10T18:17:41.596Z,2.00
2018-08-10T18:20:14.537Z,1.07
2018-08-10T18:22:44.711Z,1.67
2018-08-10T18:25:14.416Z,1.17
2018-08-10T18:27:43.639Z,2.70
2018-08-10T18:30:15.790Z,3.60
2018-08-10T18:32:44.693Z,2.20
2018-08-10T18:35:13.253Z,1.80
2018-08-10T18:37:42.659Z,2.43
2018-08-10T18:40:12.944Z,1.17
2018-08-10T18:42:42.602Z,3.37
2018-08-10T18:45:12.651Z,0.80
2018-08-10T18:47:41.533Z,1.70
2018-08-10T18:50:11.960Z,2.70
2018-08-10T18:52:40.743Z,1.13
2018-08-10T18:55:11.024Z,1.87
2018-08-10T18:57:40.158Z,2.83
2018-08-10T19:00:11.263Z,4.30
2018-08-10T19:02:40.048Z,3.23
2018-08-10T19:05:10.835Z,1.23
2018-08-10T19:07:39.505Z,3.53
2018-08-10T19:10:09.239Z,0.73
2018-08-10T19:12:38.409Z,2.23
2018-08-10T19:15:10.619Z,2.30
2018-08-10T19:17:39.611Z,1.50
2018-08-10T19:20:09.283Z,1.20
2018-08-10T19:22:38.406Z,2.70
2018-08-10T19:25:08.650Z,1.63
2018-08-10T19:27:37.228Z,3.80
2018-08-10T19:30:08.621Z,2.07
2018-08-10T19:32:37.214Z,3.27
2018-08-10T19:35:06.186Z,2.47
2018-08-10T19:37:34.798Z,2.60
2018-08-10T19:40:03.334Z,8.73
2018-08-10T19:42:31.861Z,3.87
2018-08-10T19:45:00.399Z,7.33
2018-08-10T19:47:29.052Z,2.97
2018-08-10T19:49:57.591Z,3.13
2018-08-10T19:52:26.294Z,1.10
2018-08-10T19:54:54.841Z,0.47
2018-08-10T19:57:23.384Z,1.00
2018-08-10T19:59:53.124Z,2.20
2018-08-10T20:02:21.637Z,2.80
2018-08-10T20:04:50.258Z,1.73
2018-08-10T20:07:18.836Z,4.23
2018-08-10T20:09:47.402Z,0.73
2018-08-10T20:12:15.933Z,5.20
2018-08-10T20:14:44.599Z,1.00
2018-08-10T20:17:13.153Z,0.80
2018-08-10T20:19:41.710Z,3.10
2018-08-10T20:22:16.972Z,2.27
2018-08-10T20:24:46.517Z,2.83
2018-08-10T20:27:15.068Z,2.30
2018-08-10T20:29:43.688Z,3.73
2018-08-10T20:32:12.202Z,3.00
2018-08-10T20:34:40.746Z,2.60
2018-08-10T20:37:09.313Z,4.83
2018-08-10T20:39:37.857Z,1.70
2018-08-10T20:42:06.639Z,1.33
2018-08-10T20:44:35.218Z,1.60
2018-08-10T20:47:03.876Z,3.50
2018-08-10T20:49:32.421Z,3.83
2018-08-10T20:52:01.027Z,5.47
2018-08-10T20:54:29.581Z,6.07
2018-08-10T20:56:58.186Z,0.90
2018-08-10T20:59:26.721Z,2.63
2018-08-10T21:01:55.251Z,1.00
2018-08-10T21:04:23.929Z,1.07
2018-08-10T21:06:52.544Z,2.30
2018-08-10T21:09:21.092Z,2.83
2018-08-10T21:11:49.636Z,1.40
2018-08-10T21:14:18.159Z,2.07
2018-08-10T21:16:46.717Z,1.30
2018-08-10T21:19:15.292Z,2.73
2018-08-10T21:21:43.783Z,5.23
2018-08-10T21:24:12.307Z,3.13
2018-08-10T21:26:40.899Z,1.33
2018-08-10T21:29:09.453Z,1.67
2018-08-10T21:31:37.970Z,1.33
2018-08-10T21:34:06.512Z,1.20
2018-08-10T21:36:35.080Z,3.73
2018-08-10T21:39:04.641Z,1.10
2018-08-10T21:41:33.167Z,2.63
2018-08-10T21:44:01.735Z,0.80
2018-08-10T21:46:30.297Z,3.97
2018-08-10T21:48:58.868Z,1.27
2018-08-10T21:51:27.453Z,1.53
2018-08-10T21:53:56.464Z,0.70
2018-08-10T21:56:25.033Z,2.87
2018-08-10T21:58:53.665Z,1.20
2018-08-10T22:01:22.320Z,1.43
2018-08-10T22:03:50.844Z,1.00
2018-08-10T22:06:19.416Z,1.33
2018-08-10T22:08:47.944Z,1.70
2018-08-10T22:11:16.559Z,7.03
2018-08-10T22:13:50.492Z,1.23
2018-08-10T22:16:24.462Z,2.43
2018-08-10T22:18:58.395Z,0.90
2018-08-10T22:21:26.968Z,6.50
2018-08-10T22:23:55.491Z,1.50
2018-08-10T22:26:24.067Z,5.23
2018-08-10T22:28:52.628Z,1.13
2018-08-10T22:31:21.154Z,2.53
2018-08-10T22:33:49.718Z,1.43
2018-08-10T22:36:18.214Z,2.20
2018-08-10T22:38:46.761Z,2.10
2018-08-10T22:41:15.322Z,1.60
2018-08-10T22:43:43.819Z,3.07
2018-08-10T22:46:12.369Z,4.50
2018-08-10T22:48:40.949Z,2.50
2018-08-10T22:51:09.588Z,4.97
2018-08-10T22:53:38.166Z,2.23
2018-08-10T22:56:07.082Z,4.40
2018-08-10T22:58:35.742Z,2.67
2018-08-10T23:01:04.555Z,2.30
2018-08-10T23:03:33.071Z,6.03
2018-08-10T23:06:01.702Z,2.70
2018-08-10T23:08:30.321Z,5.80
2018-08-10T23:10:58.840Z,5.87
2018-08-10T23:13:27.394Z,2.50
2018-08-10T23:15:56.018Z,4.40
2018-08-10T23:18:24.600Z,6.10
2018-08-10T23:20:53.185Z,12.20
2018-08-10T23:23:21.761Z,8.00
2018-08-10T23:25:50.418Z,6.10
2018-08-10T23:28:19.154Z,4.03
2018-08-10T23:30:47.724Z,9.40
2018-08-10T23:33:16.266Z,7.00
2018-08-10T23:35:44.819Z,9.63
2018-08-10T23:38:13.361Z,8.10
2018-08-10T23:40:41.934Z,8.97
2018-08-10T23:43:10.459Z,8.57
2018-08-10T23:45:38.985Z,14.93
2018-08-10T23:48:08.170Z,6.90
2018-08-10T23:50:36.732Z,9.90
2018-08-10T23:53:05.290Z,5.90
2018-08-10T23:55:33.908Z,9.37
2018-08-10T23:58:02.519Z,7.40
